Terminal Aerodrome Forecast
Issued by NWS La Crosse, WI

Home | Current Version | Previous Version | Text Only | Print | Product List | Glossary On
Versions: 1 2 3 4 5 6 7 8 9 10 11 12 13 14 15 16 17 18 19 20 21
000
FTUS43 KARX 291730
TAFLSE
TAF
KLSE 291730Z 2918/3018 28011G19KT P6SM VCSH BKN040
     FM300100 26007KT P6SM SCT040
     FM300400 VRB04KT P6SM SKC
     FM301400 27006KT P6SM SCT120=

USA.gov is the U.S. government's official web portal to all federal, state and local government web resources and services.